Time;durP1;ratioP1;P1;durP2;ratioP2;P2;SDS_P1;SDS_P2;PMS_P1;PMS_P2;Temp;Humidity;BMP_temperature;BMP_pressure;BME280_temperature;BME280_humidity;BME280_pressure;Samples;Min_cycle;Max_cycle;Signal;HPM_P1;HPM_P2
2022/04/02 00:01:05;;;;;;;9.43;7.00;;;;;;;;;;4995346;28;20513;-80
2022/04/02 00:03:31;;;;;;;9.88;6.78;;;;;;;;;;4995738;28;20030;-80
2022/04/02 00:05:56;;;;;;;9.32;6.90;;;;;;;;;;4994798;28;20534;-80
2022/04/02 00:08:22;;;;;;;9.65;7.05;;;;;;;;;;4995552;28;20022;-80
2022/04/02 00:10:47;;;;;;;8.07;6.15;;;;;;;;;;4995351;28;20046;-79
2022/04/02 00:13:14;;;;;;;9.27;7.00;;;;;;;;;;4995772;28;20034;-80
2022/04/02 00:15:40;;;;;;;10.30;7.38;;;;;;;;;;4993614;28;20031;-80
2022/04/02 00:18:06;;;;;;;10.07;7.22;;;;;;;;;;4977732;28;20042;-79
2022/04/02 00:20:32;;;;;;;9.18;6.55;;;;;;;;;;4995243;28;20036;-79
2022/04/02 00:25:41;;;;;;;9.70;6.57;;;;;;;;;;4993439;28;20046;-79
2022/04/02 00:28:06;;;;;;;10.75;7.40;;;;;;;;;;4993683;28;20037;-80
2022/04/02 00:30:31;;;;;;;10.10;7.05;;;;;;;;;;4993696;28;20046;-80
2022/04/02 00:32:58;;;;;;;9.23;7.18;;;;;;;;;;4993623;28;20042;-80
2022/04/02 00:35:23;;;;;;;9.48;7.05;;;;;;;;;;4993206;28;20100;-80
2022/04/02 00:37:49;;;;;;;10.27;7.28;;;;;;;;;;4994892;28;20034;-79
2022/04/02 00:40:14;;;;;;;10.38;7.28;;;;;;;;;;4993165;28;20045;-79
2022/04/02 00:42:41;;;;;;;9.73;6.93;;;;;;;;;;4993377;28;20089;-80
2022/04/02 00:45:06;;;;;;;9.63;7.38;;;;;;;;;;4992943;28;20088;-80
2022/04/02 00:47:31;;;;;;;11.77;7.78;;;;;;;;;;4994469;28;20034;-80
2022/04/02 00:49:57;;;;;;;10.23;7.10;;;;;;;;;;4994337;28;20026;-80
2022/04/02 00:52:23;;;;;;;9.05;6.70;;;;;;;;;;4993062;28;20466;-80
2022/04/02 00:54:48;;;;;;;10.15;7.47;;;;;;;;;;4993078;28;20026;-80
2022/04/02 00:57:14;;;;;;;9.38;7.03;;;;;;;;;;4992854;28;20125;-80
2022/04/02 00:59:39;;;;;;;9.98;6.95;;;;;;;;;;4994293;28;20048;-78
2022/04/02 01:02:05;;;;;;;9.57;7.07;;;;;;;;;;4993079;28;20061;-80
2022/04/02 01:04:31;;;;;;;9.25;7.15;;;;;;;;;;4993625;28;20034;-79
2022/04/02 01:06:59;;;;;;;10.32;7.45;;;;;;;;;;4976874;28;20034;-79
2022/04/02 01:09:25;;;;;;;10.20;7.50;;;;;;;;;;4979212;28;20084;-79
2022/04/02 01:11:54;;;;;;;9.98;7.10;;;;;;;;;;4993666;28;20034;-79
2022/04/02 01:14:19;;;;;;;9.48;7.30;;;;;;;;;;4992465;28;20117;-79
2022/04/02 01:16:48;;;;;;;9.45;7.43;;;;;;;;;;4976015;28;20039;-79
2022/04/02 01:19:19;;;;;;;8.82;6.85;;;;;;;;;;4992810;28;20165;-79
2022/04/02 01:21:45;;;;;;;9.75;7.10;;;;;;;;;;4993314;28;20039;-80
2022/04/02 01:24:21;;;;;;;8.95;6.47;;;;;;;;;;4992517;28;20038;-80
2022/04/02 01:26:49;;;;;;;9.68;7.07;;;;;;;;;;4992477;28;20518;-80
2022/04/02 01:29:18;;;;;;;9.70;6.53;;;;;;;;;;4976759;28;20034;-79
2022/04/02 01:31:50;;;;;;;8.57;6.13;;;;;;;;;;4992609;28;20064;-79
2022/04/02 01:34:19;;;;;;;8.07;5.95;;;;;;;;;;4992183;28;20026;-79
2022/04/02 01:36:45;;;;;;;9.43;6.43;;;;;;;;;;4991882;28;20038;-80
2022/04/02 01:39:19;;;;;;;8.43;6.20;;;;;;;;;;4991824;28;20088;-79
2022/04/02 01:41:46;;;;;;;9.55;6.18;;;;;;;;;;4991658;28;20037;-79
2022/04/02 01:44:15;;;;;;;8.80;6.35;;;;;;;;;;4992056;28;20030;-80
2022/04/02 01:46:41;;;;;;;8.82;6.53;;;;;;;;;;4991767;28;20037;-79
2022/04/02 01:49:06;;;;;;;9.07;6.15;;;;;;;;;;4992004;28;20046;-79
2022/04/02 01:51:32;;;;;;;9.32;6.28;;;;;;;;;;4993508;28;20601;-79
2022/04/02 01:53:57;;;;;;;8.77;6.30;;;;;;;;;;4992142;28;20062;-78
2022/04/02 01:56:23;;;;;;;9.07;6.70;;;;;;;;;;4991881;28;20494;-79
2022/04/02 01:58:54;;;;;;;10.13;6.70;;;;;;;;;;4977546;28;20037;-79
2022/04/02 02:01:22;;;;;;;9.88;7.00;;;;;;;;;;4994904;28;20061;-79
2022/04/02 02:03:49;;;;;;;9.60;6.90;;;;;;;;;;4993727;28;20089;-79
2022/04/02 02:06:15;;;;;;;10.68;7.20;;;;;;;;;;4993602;28;20506;-79
2022/04/02 02:08:44;;;;;;;9.02;6.78;;;;;;;;;;4993602;28;20411;-78
2022/04/02 02:11:23;;;;;;;9.68;6.75;;;;;;;;;;4992938;28;20038;-79
2022/04/02 02:14:04;;;;;;;9.43;6.97;;;;;;;;;;4992752;28;20394;-79
2022/04/02 02:16:32;;;;;;;9.50;6.93;;;;;;;;;;4992959;28;20521;-78
2022/04/02 02:18:57;;;;;;;9.48;6.63;;;;;;;;;;4992968;28;20030;-79
2022/04/02 02:21:23;;;;;;;9.00;6.60;;;;;;;;;;4992865;28;20507;-79
2022/04/02 02:23:50;;;;;;;8.55;6.47;;;;;;;;;;4993019;28;20069;-81
2022/04/02 02:26:16;;;;;;;9.15;6.50;;;;;;;;;;4992357;28;20062;-80
2022/04/02 02:28:42;;;;;;;10.10;7.45;;;;;;;;;;4992912;28;20061;-80
2022/04/02 02:31:14;;;;;;;10.23;7.22;;;;;;;;;;4995321;28;20038;-79
2022/04/02 02:36:50;;;;;;;9.65;7.25;;;;;;;;;;5013964;28;20541;-80
2022/04/02 02:39:15;;;;;;;9.82;7.05;;;;;;;;;;4998213;28;20084;-80
2022/04/02 02:41:47;;;;;;;8.15;6.47;;;;;;;;;;4996032;28;20499;-79
2022/04/02 02:44:25;;;;;;;9.98;7.30;;;;;;;;;;4994597;28;20033;-79
2022/04/02 02:47:04;;;;;;;8.32;6.22;;;;;;;;;;4981907;28;20038;-79
2022/04/02 02:49:29;;;;;;;11.07;7.43;;;;;;;;;;4995941;28;20129;-79
2022/04/02 02:51:56;;;;;;;10.55;6.88;;;;;;;;;;4995072;28;20037;-80
2022/04/02 02:54:26;;;;;;;9.95;7.30;;;;;;;;;;4979117;28;20066;-79
2022/04/02 02:56:54;;;;;;;10.57;7.85;;;;;;;;;;4979313;28;20043;-80
2022/04/02 02:59:20;;;;;;;11.27;7.90;;;;;;;;;;4995088;28;20414;-80
2022/04/02 03:01:45;;;;;;;10.10;7.22;;;;;;;;;;4994807;28;20030;-80
2022/04/02 03:04:10;;;;;;;11.82;8.10;;;;;;;;;;4994810;28;20399;-80
2022/04/02 03:06:36;;;;;;;11.80;7.60;;;;;;;;;;4996182;28;20062;-79
2022/04/02 03:09:03;;;;;;;9.00;6.80;;;;;;;;;;4978689;28;20036;-80
2022/04/02 03:11:28;;;;;;;9.85;6.85;;;;;;;;;;4994852;28;20134;-79
2022/04/02 03:13:55;;;;;;;9.70;7.60;;;;;;;;;;4994854;28;20121;-80
2022/04/02 03:16:21;;;;;;;9.50;7.15;;;;;;;;;;4995983;28;20113;-79
2022/04/02 03:18:55;;;;;;;10.07;6.60;;;;;;;;;;4995171;28;20480;-79
2022/04/02 03:21:21;;;;;;;9.55;6.97;;;;;;;;;;4994182;28;20113;-79
2022/04/02 03:23:47;;;;;;;9.35;6.75;;;;;;;;;;4995795;28;20113;-79
2022/04/02 03:26:15;;;;;;;7.88;6.10;;;;;;;;;;4993985;28;20027;-79
2022/04/02 03:28:41;;;;;;;9.35;6.97;;;;;;;;;;4994782;28;20406;-79
2022/04/02 03:31:07;;;;;;;7.57;5.93;;;;;;;;;;4994005;28;20038;-79
2022/04/02 03:33:36;;;;;;;8.63;6.18;;;;;;;;;;4994435;28;20030;-79
2022/04/02 03:36:03;;;;;;;8.77;6.25;;;;;;;;;;4994163;28;20030;-80
2022/04/02 03:38:28;;;;;;;7.78;5.35;;;;;;;;;;4995821;28;20030;-80
2022/04/02 03:40:57;;;;;;;7.82;5.82;;;;;;;;;;4977842;28;20080;-80
2022/04/02 03:43:23;;;;;;;7.47;5.70;;;;;;;;;;4995447;28;20034;-79
2022/04/02 03:45:48;;;;;;;7.90;5.80;;;;;;;;;;4994259;28;20038;-79
2022/04/02 03:48:13;;;;;;;7.43;5.63;;;;;;;;;;4994457;28;20026;-80
2022/04/02 03:50:41;;;;;;;7.43;5.45;;;;;;;;;;4978295;28;20034;-80
2022/04/02 03:53:13;;;;;;;6.40;4.95;;;;;;;;;;4993938;28;20030;-79
2022/04/02 03:55:49;;;;;;;7.32;5.25;;;;;;;;;;4993810;28;20514;-80
2022/04/02 03:58:23;;;;;;;6.95;5.20;;;;;;;;;;4994260;28;20097;-80
2022/04/02 04:00:48;;;;;;;6.63;5.22;;;;;;;;;;4977696;28;20423;-79
2022/04/02 04:03:15;;;;;;;7.13;5.30;;;;;;;;;;4994032;28;20568;-79
2022/04/02 04:05:45;;;;;;;7.50;5.75;;;;;;;;;;4994417;28;20031;-79
2022/04/02 04:08:11;;;;;;;7.78;5.57;;;;;;;;;;4995619;28;20030;-79
2022/04/02 04:10:39;;;;;;;8.05;5.70;;;;;;;;;;4979422;28;20026;-79
2022/04/02 04:13:05;;;;;;;7.45;5.70;;;;;;;;;;4996630;28;20030;-79
2022/04/02 04:15:33;;;;;;;6.85;5.43;;;;;;;;;;4994943;28;20042;-79
2022/04/02 04:18:01;;;;;;;7.80;5.68;;;;;;;;;;4979189;28;20058;-79
2022/04/02 04:20:28;;;;;;;8.45;5.20;;;;;;;;;;4994937;28;20544;-80
2022/04/02 04:22:54;;;;;;;6.47;4.95;;;;;;;;;;4995760;28;20041;-79
2022/04/02 04:25:22;;;;;;;7.95;5.50;;;;;;;;;;4994278;28;20518;-79
2022/04/02 04:27:49;;;;;;;8.02;6.10;;;;;;;;;;4994323;28;20041;-79
2022/04/02 04:30:15;;;;;;;8.40;5.95;;;;;;;;;;4994646;28;20041;-79
2022/04/02 04:32:42;;;;;;;8.93;5.55;;;;;;;;;;4978980;28;20457;-79
2022/04/02 04:35:09;;;;;;;8.35;5.82;;;;;;;;;;4978317;28;20030;-79
2022/04/02 04:37:35;;;;;;;8.48;5.63;;;;;;;;;;4995073;28;20080;-79
2022/04/02 04:40:01;;;;;;;8.10;5.70;;;;;;;;;;4994769;28;20030;-79
2022/04/02 04:42:26;;;;;;;6.40;4.88;;;;;;;;;;4994673;28;20038;-79
2022/04/02 04:44:55;;;;;;;6.90;5.10;;;;;;;;;;4994603;28;20431;-79
2022/04/02 04:47:20;;;;;;;6.93;5.10;;;;;;;;;;4978330;28;20026;-79
2022/04/02 04:49:49;;;;;;;6.93;4.97;;;;;;;;;;4994702;28;20422;-79
2022/04/02 04:52:14;;;;;;;6.97;5.28;;;;;;;;;;4993469;28;20027;-79
2022/04/02 04:54:40;;;;;;;7.65;5.60;;;;;;;;;;4993734;28;20045;-79
2022/04/02 04:57:17;;;;;;;8.70;5.30;;;;;;;;;;4979589;28;20030;-79
2022/04/02 04:59:57;;;;;;;7.07;5.18;;;;;;;;;;4993917;28;20380;-79
2022/04/02 05:02:26;;;;;;;7.88;5.57;;;;;;;;;;4994041;28;20030;-77
2022/04/02 05:04:52;;;;;;;7.20;5.20;;;;;;;;;;4993441;28;20041;-78
2022/04/02 05:07:18;;;;;;;7.13;5.28;;;;;;;;;;4977253;28;20193;-79
2022/04/02 05:09:45;;;;;;;7.13;5.32;;;;;;;;;;4977262;28;20533;-78
2022/04/02 05:12:11;;;;;;;7.22;5.10;;;;;;;;;;4994777;28;20034;-78
2022/04/02 05:14:41;;;;;;;6.97;5.00;;;;;;;;;;4977435;28;20490;-79
2022/04/02 05:17:06;;;;;;;7.22;5.07;;;;;;;;;;4993828;28;20038;-79
2022/04/02 05:19:34;;;;;;;6.75;5.25;;;;;;;;;;4993594;28;20057;-79
2022/04/02 05:22:02;;;;;;;7.80;5.72;;;;;;;;;;4993262;28;20105;-80
2022/04/02 05:24:32;;;;;;;7.95;5.57;;;;;;;;;;4977046;28;20057;-79
2022/04/02 05:26:58;;;;;;;8.88;6.35;;;;;;;;;;4977147;28;20080;-79
2022/04/02 05:29:25;;;;;;;10.10;6.53;;;;;;;;;;4977640;28;20402;-78
2022/04/02 05:31:50;;;;;;;11.30;6.40;;;;;;;;;;4993498;28;20042;-79
2022/04/02 05:34:15;;;;;;;10.98;7.47;;;;;;;;;;4993505;28;20023;-79
2022/04/02 05:36:43;;;;;;;11.00;7.03;;;;;;;;;;4993455;28;20117;-79
2022/04/02 05:39:08;;;;;;;10.55;7.00;;;;;;;;;;4993630;28;20224;-80
2022/04/02 05:41:33;;;;;;;8.73;6.30;;;;;;;;;;4977399;28;20113;-80
2022/04/02 05:43:59;;;;;;;9.25;6.22;;;;;;;;;;4993373;28;20402;-81
2022/04/02 05:46:24;;;;;;;10.45;7.43;;;;;;;;;;4993542;28;20110;-80
2022/04/02 05:48:49;;;;;;;11.30;7.55;;;;;;;;;;4993447;28;20486;-80
2022/04/02 05:51:14;;;;;;;16.40;10.43;;;;;;;;;;4993309;28;20100;-79
2022/04/02 05:53:40;;;;;;;17.48;10.10;;;;;;;;;;4991849;28;20034;-79
2022/04/02 05:56:05;;;;;;;17.75;11.75;;;;;;;;;;4992753;28;20041;-79
2022/04/02 05:58:31;;;;;;;22.83;12.80;;;;;;;;;;4993117;28;20038;-80
2022/04/02 06:00:56;;;;;;;24.02;13.80;;;;;;;;;;4992819;28;20034;-80
2022/04/02 06:03:21;;;;;;;22.00;13.18;;;;;;;;;;4992626;28;20403;-78
2022/04/02 06:05:46;;;;;;;23.33;14.02;;;;;;;;;;4992717;28;20080;-79
2022/04/02 06:08:12;;;;;;;25.40;15.00;;;;;;;;;;4992653;28;20117;-78
2022/04/02 06:10:37;;;;;;;23.45;14.15;;;;;;;;;;4991393;28;20105;-79
2022/04/02 06:13:03;;;;;;;29.67;15.90;;;;;;;;;;4992494;28;20049;-80
2022/04/02 06:15:28;;;;;;;28.05;16.08;;;;;;;;;;4992945;28;20093;-80
2022/04/02 06:17:53;;;;;;;28.50;15.48;;;;;;;;;;4993016;28;20102;-80
2022/04/02 06:20:18;;;;;;;33.13;17.95;;;;;;;;;;4992571;28;20387;-79
2022/04/02 06:22:44;;;;;;;26.80;14.63;;;;;;;;;;4993774;28;20038;-80
2022/04/02 06:25:09;;;;;;;25.40;15.68;;;;;;;;;;4992523;28;20019;-78
2022/04/02 06:27:34;;;;;;;24.95;16.33;;;;;;;;;;4991516;28;20582;-78
2022/04/02 06:29:59;;;;;;;26.40;15.27;;;;;;;;;;4992907;28;20418;-78
2022/04/02 06:32:25;;;;;;;27.25;16.05;;;;;;;;;;4991075;28;20049;-76
2022/04/02 06:34:50;;;;;;;29.55;15.02;;;;;;;;;;4991815;28;20030;-80
2022/04/02 06:37:16;;;;;;;29.38;15.13;;;;;;;;;;4992452;28;20062;-80
2022/04/02 06:39:41;;;;;;;31.08;16.83;;;;;;;;;;4991057;28;20411;-77
2022/04/02 06:42:07;;;;;;;31.63;17.30;;;;;;;;;;4992936;28;20061;-79
2022/04/02 06:44:39;;;;;;;24.70;14.25;;;;;;;;;;4990943;28;20049;-79
2022/04/02 06:47:06;;;;;;;23.65;14.48;;;;;;;;;;4991512;28;20034;-78
2022/04/02 06:49:31;;;;;;;24.42;14.52;;;;;;;;;;4992320;28;20368;-78
2022/04/02 06:51:57;;;;;;;24.58;14.57;;;;;;;;;;4992369;28;20510;-78
2022/04/02 06:54:22;;;;;;;23.98;14.30;;;;;;;;;;4992738;28;20034;-78
2022/04/02 06:56:50;;;;;;;22.60;12.88;;;;;;;;;;4992166;28;20046;-78
2022/04/02 06:59:15;;;;;;;22.85;13.65;;;;;;;;;;4992329;28;20041;-78
2022/04/02 07:01:41;;;;;;;22.75;14.38;;;;;;;;;;4992128;28;20030;-78
2022/04/02 07:04:06;;;;;;;23.15;14.23;;;;;;;;;;4992387;28;20406;-78
2022/04/02 07:06:34;;;;;;;23.63;14.23;;;;;;;;;;4992138;28;20038;-78
2022/04/02 07:08:59;;;;;;;22.27;13.75;;;;;;;;;;4990846;28;20061;-78
2022/04/02 07:11:24;;;;;;;25.02;14.43;;;;;;;;;;4990877;28;20078;-79
2022/04/02 07:13:49;;;;;;;23.05;13.38;;;;;;;;;;4991122;28;20026;-78
2022/04/02 07:16:16;;;;;;;21.38;13.68;;;;;;;;;;4993723;28;20463;-78
2022/04/02 07:18:41;;;;;;;22.15;12.25;;;;;;;;;;4995891;28;20443;-78
2022/04/02 07:21:06;;;;;;;19.10;11.40;;;;;;;;;;4995597;28;20061;-79
2022/04/02 07:23:31;;;;;;;20.23;12.23;;;;;;;;;;4995585;28;20398;-78
2022/04/02 07:25:57;;;;;;;18.25;11.35;;;;;;;;;;4994344;28;20095;-78
2022/04/02 07:28:25;;;;;;;17.25;11.02;;;;;;;;;;4994595;28;20487;-78
2022/04/02 07:30:50;;;;;;;19.83;11.70;;;;;;;;;;4995373;28;20031;-78
2022/04/02 07:33:21;;;;;;;20.88;11.90;;;;;;;;;;4994494;28;20418;-78
2022/04/02 07:35:47;;;;;;;27.60;12.85;;;;;;;;;;4994966;28;20517;-78
2022/04/02 07:38:12;;;;;;;22.00;13.88;;;;;;;;;;4994495;28;20120;-78
2022/04/02 07:40:45;;;;;;;21.30;12.38;;;;;;;;;;4979167;28;20053;-79
2022/04/02 07:43:10;;;;;;;21.63;13.05;;;;;;;;;;4995452;28;20498;-79
2022/04/02 07:45:35;;;;;;;20.55;13.00;;;;;;;;;;4994818;28;20129;-79
2022/04/02 07:48:01;;;;;;;24.52;13.60;;;;;;;;;;4993979;28;20030;-78
2022/04/02 07:50:26;;;;;;;22.65;13.82;;;;;;;;;;4994829;28;20038;-78
2022/04/02 07:52:51;;;;;;;22.08;13.25;;;;;;;;;;4994800;28;20026;-78
2022/04/02 07:55:19;;;;;;;21.52;13.55;;;;;;;;;;4995036;28;20426;-78
2022/04/02 07:57:48;;;;;;;26.05;15.13;;;;;;;;;;4978361;28;20030;-78
2022/04/02 08:00:13;;;;;;;27.02;14.27;;;;;;;;;;5007681;23;20046;-85
2022/04/02 08:02:38;;;;;;;559.55;209.82;;;;;;;;;;4979008;28;20057;-85
2022/04/02 08:05:04;;;;;;;29.77;14.38;;;;;;;;;;4978067;28;20046;-85
2022/04/02 08:07:29;;;;;;;26.92;13.55;;;;;;;;;;4961374;28;20046;-84
2022/04/02 08:09:54;;;;;;;23.45;13.07;;;;;;;;;;4977259;28;20038;-85
2022/04/02 08:12:19;;;;;;;22.67;12.98;;;;;;;;;;4978457;28;20535;-84
2022/04/02 08:14:45;;;;;;;27.85;13.98;;;;;;;;;;4976901;28;20034;-82
2022/04/02 08:17:10;;;;;;;21.85;13.07;;;;;;;;;;4977885;28;20055;-84
2022/04/02 08:19:35;;;;;;;29.85;14.95;;;;;;;;;;4978279;28;20117;-84
2022/04/02 08:22:00;;;;;;;23.98;12.25;;;;;;;;;;4978815;28;20034;-84
2022/04/02 08:24:26;;;;;;;22.02;12.82;;;;;;;;;;4977433;28;20034;-83
2022/04/02 08:26:52;;;;;;;25.58;13.25;;;;;;;;;;4978592;28;20029;-83
2022/04/02 08:29:17;;;;;;;24.05;12.18;;;;;;;;;;4977509;28;20050;-84
2022/04/02 08:31:44;;;;;;;28.65;14.70;;;;;;;;;;4979001;28;20039;-84
2022/04/02 08:34:09;;;;;;;26.17;12.80;;;;;;;;;;4978371;28;20117;-83
2022/04/02 08:36:34;;;;;;;22.95;13.05;;;;;;;;;;4977017;28;20065;-83
2022/04/02 08:39:00;;;;;;;22.45;12.65;;;;;;;;;;4978246;28;20387;-83
2022/04/02 08:41:26;;;;;;;20.75;12.43;;;;;;;;;;4979165;28;20118;-83
2022/04/02 08:43:51;;;;;;;24.85;12.77;;;;;;;;;;4980529;28;20046;-84
2022/04/02 08:46:16;;;;;;;29.30;14.35;;;;;;;;;;4976728;28;20047;-83
2022/04/02 08:48:42;;;;;;;22.38;12.63;;;;;;;;;;4978439;28;20127;-82
2022/04/02 08:51:07;;;;;;;28.30;14.55;;;;;;;;;;4976329;28;20061;-83
2022/04/02 08:53:32;;;;;;;22.98;13.20;;;;;;;;;;4978070;28;20062;-83
2022/04/02 08:55:57;;;;;;;25.85;13.07;;;;;;;;;;4976698;28;20114;-82
2022/04/02 08:58:23;;;;;;;26.27;13.95;;;;;;;;;;4976606;28;20054;-83
2022/04/02 09:00:48;;;;;;;20.88;12.27;;;;;;;;;;4977604;28;20054;-83
2022/04/02 09:03:13;;;;;;;25.55;13.35;;;;;;;;;;4978317;28;20054;-83
2022/04/02 09:05:38;;;;;;;26.40;14.60;;;;;;;;;;4960573;28;20043;-84
2022/04/02 09:08:04;;;;;;;23.23;13.35;;;;;;;;;;4960734;28;20037;-83
2022/04/02 09:10:29;;;;;;;23.83;14.35;;;;;;;;;;4976573;28;20038;-85
2022/04/02 09:12:54;;;;;;;29.48;13.45;;;;;;;;;;4978997;28;20035;-85
2022/04/02 09:15:19;;;;;;;25.73;12.57;;;;;;;;;;4960189;28;20130;-84
2022/04/02 09:17:45;;;;;;;23.20;12.93;;;;;;;;;;4976765;28;20031;-84
2022/04/02 09:20:12;;;;;;;23.50;12.82;;;;;;;;;;4977787;28;20030;-86
2022/04/02 09:22:37;;;;;;;23.80;13.43;;;;;;;;;;4976143;28;20053;-84
2022/04/02 09:25:04;;;;;;;21.77;13.55;;;;;;;;;;4977630;28;20050;-83
2022/04/02 09:27:29;;;;;;;32.17;15.38;;;;;;;;;;4976519;28;20038;-82
2022/04/02 09:29:54;;;;;;;35.08;18.55;;;;;;;;;;4976296;28;20041;-82
2022/04/02 09:32:19;;;;;;;24.83;12.70;;;;;;;;;;4976932;28;20031;-84
2022/04/02 09:34:45;;;;;;;21.85;12.13;;;;;;;;;;4976856;28;20042;-83
2022/04/02 09:37:10;;;;;;;19.67;11.70;;;;;;;;;;4976815;28;20038;-85
2022/04/02 09:39:35;;;;;;;24.33;13.45;;;;;;;;;;4977269;28;20041;-86
2022/04/02 09:42:01;;;;;;;27.70;12.40;;;;;;;;;;4979211;28;20057;-83
2022/04/02 09:44:27;;;;;;;22.45;12.90;;;;;;;;;;4977602;28;20094;-83
2022/04/02 09:46:52;;;;;;;23.95;11.57;;;;;;;;;;4976203;28;20022;-82
2022/04/02 09:49:18;;;;;;;22.65;11.80;;;;;;;;;;4976235;28;20041;-83
2022/04/02 09:51:43;;;;;;;18.63;11.63;;;;;;;;;;4976995;28;20034;-83
2022/04/02 09:54:08;;;;;;;28.63;14.52;;;;;;;;;;4977812;28;20041;-84
2022/04/02 09:56:33;;;;;;;16.80;10.40;;;;;;;;;;4976574;28;20038;-83
2022/04/02 09:58:59;;;;;;;21.58;11.95;;;;;;;;;;4978071;28;20038;-84
2022/04/02 10:01:24;;;;;;;19.05;11.50;;;;;;;;;;4976568;28;20027;-83
2022/04/02 10:03:49;;;;;;;52.50;25.15;;;;;;;;;;4978418;28;20093;-84
2022/04/02 10:06:15;;;;;;;20.95;11.98;;;;;;;;;;4977572;28;20093;-86
2022/04/02 10:08:41;;;;;;;18.92;11.10;;;;;;;;;;4976704;28;20035;-84
2022/04/02 10:11:06;;;;;;;22.13;10.73;;;;;;;;;;4978178;28;20035;-83
2022/04/02 10:13:31;;;;;;;16.73;10.90;;;;;;;;;;4977408;28;20395;-83
2022/04/02 10:15:56;;;;;;;18.77;11.65;;;;;;;;;;4977698;28;20145;-83
2022/04/02 10:18:22;;;;;;;20.25;11.20;;;;;;;;;;4978673;28;20038;-86
2022/04/02 10:20:47;;;;;;;21.33;12.10;;;;;;;;;;4978234;28;20063;-85
2022/04/02 10:23:13;;;;;;;20.92;11.90;;;;;;;;;;4977607;28;20046;-84
2022/04/02 10:25:38;;;;;;;20.15;12.27;;;;;;;;;;4960238;28;20118;-85
2022/04/02 10:28:03;;;;;;;25.50;12.85;;;;;;;;;;4976340;28;20065;-83
2022/04/02 10:30:29;;;;;;;20.05;11.80;;;;;;;;;;4959862;28;20035;-85
2022/04/02 10:32:54;;;;;;;20.98;11.80;;;;;;;;;;4975992;28;20047;-83
2022/04/02 10:35:19;;;;;;;19.95;11.20;;;;;;;;;;4972577;28;20039;-82
2022/04/02 10:37:44;;;;;;;19.70;11.43;;;;;;;;;;4974664;28;20042;-82
2022/04/02 10:40:10;;;;;;;20.85;11.88;;;;;;;;;;4984005;28;20038;-83
2022/04/02 10:42:35;;;;;;;22.35;13.30;;;;;;;;;;4983371;28;20038;-84
2022/04/02 10:45:00;;;;;;;20.60;12.73;;;;;;;;;;4978417;28;20062;-85
2022/04/02 10:47:26;;;;;;;22.80;12.35;;;;;;;;;;4975640;28;20027;-84
2022/04/02 10:49:51;;;;;;;18.63;11.95;;;;;;;;;;4975951;28;20456;-83
2022/04/02 10:52:16;;;;;;;23.17;11.68;;;;;;;;;;4979111;28;20035;-85
2022/04/02 10:54:42;;;;;;;20.10;10.77;;;;;;;;;;4979933;28;20034;-85
2022/04/02 10:57:07;;;;;;;20.38;10.85;;;;;;;;;;4963480;28;20711;-85
2022/04/02 10:59:32;;;;;;;17.95;10.18;;;;;;;;;;4980714;28;20042;-83
2022/04/02 11:01:58;;;;;;;21.73;11.38;;;;;;;;;;4978919;28;20034;-85
2022/04/02 11:04:23;;;;;;;22.20;12.32;;;;;;;;;;4979730;28;20045;-85
2022/04/02 11:06:49;;;;;;;32.47;16.95;;;;;;;;;;4979587;28;20042;-84
2022/04/02 11:09:14;;;;;;;57.78;23.85;;;;;;;;;;4962904;28;20023;-83
2022/04/02 11:11:39;;;;;;;126.40;46.95;;;;;;;;;;4980889;28;20287;-83
2022/04/02 11:14:06;;;;;;;24.77;13.35;;;;;;;;;;4981198;28;20077;-83
2022/04/02 11:16:33;;;;;;;25.13;13.75;;;;;;;;;;4980921;28;20125;-84
2022/04/02 11:19:54;;;;;;;40.10;23.17;;;;;;;;;;4980430;28;20050;-85
2022/04/02 11:21:43;;;;;;;24.77;14.05;;;;;;;;;;4980773;28;20082;-83
2022/04/02 11:24:08;;;;;;;35.65;16.13;;;;;;;;;;4980561;28;20479;-85
2022/04/02 11:26:34;;;;;;;54.97;13.75;;;;;;;;;;4980993;28;20462;-85
2022/04/02 11:28:59;;;;;;;31.70;11.68;;;;;;;;;;4981490;28;20082;-84
2022/04/02 11:31:24;;;;;;;23.45;11.40;;;;;;;;;;4963619;28;20039;-83
2022/04/02 11:33:50;;;;;;;26.60;11.65;;;;;;;;;;4980983;28;20526;-85
2022/04/02 11:36:15;;;;;;;23.90;11.27;;;;;;;;;;4980406;28;20043;-83
2022/04/02 11:38:40;;;;;;;31.23;12.65;;;;;;;;;;4981271;28;20116;-82
2022/04/02 11:41:06;;;;;;;28.38;13.32;;;;;;;;;;4980755;28;20517;-84
2022/04/02 11:43:31;;;;;;;24.08;12.60;;;;;;;;;;4986950;28;20027;-82
2022/04/02 11:45:56;;;;;;;33.10;13.93;;;;;;;;;;4975326;28;20059;-82
2022/04/02 11:48:22;;;;;;;20.83;10.73;;;;;;;;;;4984101;28;20027;-85
2022/04/02 11:50:48;;;;;;;20.45;10.70;;;;;;;;;;4981929;28;20491;-84
2022/04/02 11:53:14;;;;;;;19.05;10.18;;;;;;;;;;4978977;28;20491;-85
2022/04/02 11:55:39;;;;;;;25.70;10.63;;;;;;;;;;4980001;28;20117;-85
2022/04/02 11:58:05;;;;;;;20.25;11.18;;;;;;;;;;4979819;28;20506;-85
2022/04/02 12:00:30;;;;;;;19.33;10.35;;;;;;;;;;4978591;28;20107;-84
2022/04/02 12:02:56;;;;;;;15.77;10.43;;;;;;;;;;4979588;28;20038;-86
2022/04/02 12:05:21;;;;;;;15.35;9.73;;;;;;;;;;4979878;28;20034;-85
2022/04/02 12:07:46;;;;;;;16.50;10.85;;;;;;;;;;4979712;28;20047;-84
2022/04/02 12:10:11;;;;;;;16.98;9.75;;;;;;;;;;4980271;28;20027;-85
2022/04/02 12:12:37;;;;;;;20.83;10.15;;;;;;;;;;4978484;28;20042;-83
2022/04/02 12:15:02;;;;;;;16.92;9.88;;;;;;;;;;4979888;28;20037;-85
2022/04/02 12:17:27;;;;;;;17.55;9.40;;;;;;;;;;4980601;28;20050;-85
2022/04/02 12:19:53;;;;;;;19.02;9.73;;;;;;;;;;4979371;28;20049;-86
2022/04/02 12:22:18;;;;;;;15.05;9.52;;;;;;;;;;4980410;28;20049;-84
2022/04/02 12:24:43;;;;;;;16.75;10.10;;;;;;;;;;4980629;28;20023;-84
2022/04/02 12:27:09;;;;;;;18.60;11.32;;;;;;;;;;4980555;28;20080;-82
2022/04/02 12:29:35;;;;;;;21.10;10.82;;;;;;;;;;4979416;28;20046;-83
2022/04/02 12:32:00;;;;;;;17.00;10.82;;;;;;;;;;4979505;28;20035;-83
2022/04/02 12:34:26;;;;;;;19.60;12.15;;;;;;;;;;4978681;28;20105;-83
2022/04/02 12:36:51;;;;;;;19.90;11.90;;;;;;;;;;4976752;28;20455;-83
2022/04/02 12:39:17;;;;;;;18.80;11.73;;;;;;;;;;4978583;28;20058;-83
2022/04/02 12:41:42;;;;;;;24.65;12.50;;;;;;;;;;4977124;28;20049;-83
2022/04/02 12:44:09;;;;;;;22.85;12.45;;;;;;;;;;4981947;28;20769;-83
2022/04/02 12:46:35;;;;;;;24.25;12.27;;;;;;;;;;4979026;28;20131;-83
2022/04/02 12:49:00;;;;;;;22.65;13.70;;;;;;;;;;4978170;28;20093;-83
2022/04/02 12:51:25;;;;;;;25.02;14.02;;;;;;;;;;4978383;28;20034;-82
2022/04/02 12:53:52;;;;;;;24.77;13.98;;;;;;;;;;4976146;28;20039;-84
2022/04/02 12:56:18;;;;;;;23.35;12.70;;;;;;;;;;4976142;28;20065;-85
2022/04/02 12:58:43;;;;;;;20.63;11.20;;;;;;;;;;4978134;28;20491;-85
2022/04/02 13:01:09;;;;;;;18.50;11.55;;;;;;;;;;4978212;28;20042;-84
2022/04/02 13:03:34;;;;;;;18.67;11.40;;;;;;;;;;4978714;28;20038;-85
2022/04/02 13:06:00;;;;;;;17.98;11.27;;;;;;;;;;4976475;28;20133;-85
2022/04/02 13:08:26;;;;;;;19.50;11.63;;;;;;;;;;4977070;28;20112;-85
2022/04/02 13:10:53;;;;;;;19.92;10.38;;;;;;;;;;4977793;28;20043;-84
2022/04/02 13:13:18;;;;;;;19.55;10.93;;;;;;;;;;4977416;28;20039;-85
2022/04/02 13:15:43;;;;;;;18.88;11.73;;;;;;;;;;4977688;28;20073;-84
2022/04/02 13:20:53;;;;;;;18.95;10.60;;;;;;;;;;4978017;28;20029;-84
2022/04/02 13:23:18;;;;;;;20.48;11.18;;;;;;;;;;4977315;28;20129;-84
2022/04/02 13:25:43;;;;;;;17.25;10.75;;;;;;;;;;4978478;28;20046;-84
2022/04/02 13:28:12;;;;;;;18.70;11.63;;;;;;;;;;4977368;28;20027;-85
2022/04/02 13:30:38;;;;;;;19.52;12.40;;;;;;;;;;4976807;28;20059;-84
2022/04/02 13:33:03;;;;;;;22.73;12.32;;;;;;;;;;4979019;28;20543;-84
2022/04/02 13:35:28;;;;;;;24.40;14.73;;;;;;;;;;4977031;28;20046;-86
2022/04/02 13:37:53;;;;;;;24.23;13.65;;;;;;;;;;4978755;28;20035;-84
2022/04/02 13:40:19;;;;;;;19.23;11.98;;;;;;;;;;4977366;28;20558;-83
2022/04/02 13:42:44;;;;;;;20.48;13.35;;;;;;;;;;4978965;28;20447;-84
2022/04/02 13:45:09;;;;;;;22.15;14.20;;;;;;;;;;4981095;28;20027;-84
2022/04/02 13:47:36;;;;;;;60.60;33.17;;;;;;;;;;4976921;28;20038;-85
2022/04/02 13:50:01;;;;;;;20.90;12.00;;;;;;;;;;4977712;28;20026;-84
2022/04/02 13:52:26;;;;;;;23.63;12.15;;;;;;;;;;4978643;28;20031;-84
2022/04/02 13:54:52;;;;;;;18.20;11.18;;;;;;;;;;4960657;28;20472;-84
2022/04/02 13:57:17;;;;;;;18.13;9.93;;;;;;;;;;4978320;28;20039;-83
2022/04/02 13:59:42;;;;;;;16.23;10.02;;;;;;;;;;4977707;28;20506;-85
2022/04/02 14:02:07;;;;;;;18.27;11.57;;;;;;;;;;4997052;23;20142;-80
2022/04/02 14:04:33;;;;;;;21.13;10.13;;;;;;;;;;4973268;28;20043;-80
2022/04/02 14:06:58;;;;;;;15.73;10.77;;;;;;;;;;4974706;28;20093;-80
2022/04/02 14:09:23;;;;;;;14.20;9.73;;;;;;;;;;4974307;28;20415;-80
2022/04/02 14:11:49;;;;;;;14.05;8.88;;;;;;;;;;4973920;28;20407;-79
2022/04/02 14:14:14;;;;;;;14.35;9.50;;;;;;;;;;4973578;28;20046;-79
2022/04/02 14:16:39;;;;;;;14.00;8.15;;;;;;;;;;4974134;28;20089;-80
2022/04/02 14:19:04;;;;;;;12.43;8.18;;;;;;;;;;4974167;28;20042;-81
2022/04/02 14:21:29;;;;;;;14.85;9.65;;;;;;;;;;4972685;28;20102;-78
2022/04/02 14:23:55;;;;;;;14.30;8.45;;;;;;;;;;4973210;28;20491;-80
2022/04/02 14:26:20;;;;;;;13.95;8.57;;;;;;;;;;4977441;28;20117;-80
2022/04/02 14:28:45;;;;;;;13.50;9.25;;;;;;;;;;4976133;28;20073;-79